createdAt,value
2023-01-30T00:02:57.481Z,7.47
2023-01-30T00:08:00.546Z,7.17
2023-01-30T00:13:03.927Z,7.20
2023-01-30T00:18:06.736Z,7.53
2023-01-30T00:23:09.710Z,7.13
2023-01-30T00:28:12.593Z,8.23
2023-01-30T00:33:15.507Z,7.73
2023-01-30T00:38:19.664Z,9.00
2023-01-30T00:43:40.888Z,8.60
2023-01-30T00:48:43.944Z,8.87
2023-01-30T00:53:46.802Z,8.20
2023-01-30T00:58:50.221Z,7.60
2023-01-30T01:03:53.416Z,8.60
2023-01-30T01:08:56.507Z,8.80
2023-01-30T01:14:01.406Z,8.13
2023-01-30T01:19:05.509Z,8.47
2023-01-30T01:24:14.499Z,8.07
2023-01-30T01:29:17.642Z,10.03
2023-01-30T01:34:20.562Z,9.33
2023-01-30T01:39:23.734Z,9.33
2023-01-30T01:44:26.561Z,8.53
2023-01-30T01:49:35.370Z,7.73
2023-01-30T01:55:02.662Z,9.07
2023-01-30T02:00:11.731Z,8.40
2023-01-30T02:05:18.001Z,8.83
2023-01-30T02:10:29.685Z,7.77
2023-01-30T02:15:33.437Z,8.63
2023-01-30T02:21:11.684Z,9.80
2023-01-30T02:26:29.571Z,8.60
2023-01-30T02:31:55.147Z,9.50
2023-01-30T02:37:51.968Z,8.20
2023-01-30T02:43:24.438Z,9.57
2023-01-30T02:53:36.795Z,7.93
2023-01-30T02:58:48.732Z,7.97
2023-01-30T03:04:31.266Z,8.90
2023-01-30T03:09:45.506Z,9.07
2023-01-30T03:14:54.720Z,8.67
2023-01-30T03:19:59.012Z,7.77
2023-01-30T03:25:02.044Z,8.27
2023-01-30T03:30:05.826Z,7.30
2023-01-30T03:35:09.607Z,9.30
2023-01-30T03:40:15.301Z,9.13
2023-01-30T03:45:18.630Z,8.73
2023-01-30T03:50:21.796Z,7.80
2023-01-30T03:55:24.779Z,8.23
2023-01-30T04:00:27.791Z,9.07
2023-01-30T04:05:30.842Z,8.60
2023-01-30T04:10:33.841Z,8.43
2023-01-30T04:15:36.844Z,7.67
2023-01-30T04:20:39.859Z,7.73
2023-01-30T04:25:46.470Z,8.37
2023-01-30T04:30:49.538Z,8.97
2023-01-30T04:35:58.450Z,7.37
2023-01-30T04:41:01.722Z,8.33
2023-01-30T04:46:04.865Z,9.53
2023-01-30T04:51:08.397Z,9.23
2023-01-30T04:56:11.310Z,9.23
2023-01-30T05:01:35.935Z,8.57
2023-01-30T05:06:39.507Z,8.03
2023-01-30T05:11:42.665Z,8.50
2023-01-30T05:16:45.606Z,8.23
2023-01-30T05:21:48.442Z,9.37
2023-01-30T05:26:51.392Z,9.53
2023-01-30T05:31:54.391Z,9.50
2023-01-30T05:36:57.358Z,16.37
2023-01-30T05:42:00.401Z,13.17
2023-01-30T05:47:03.448Z,12.23
2023-01-30T05:52:06.377Z,11.00
2023-01-30T05:57:09.278Z,9.87
2023-01-30T06:02:12.345Z,10.33
2023-01-30T06:07:15.305Z,12.07
2023-01-30T06:12:18.282Z,12.33
2023-01-30T06:17:21.230Z,10.87
2023-01-30T06:22:24.458Z,9.77
2023-01-30T06:27:27.521Z,11.60
2023-01-30T06:32:30.452Z,10.97
2023-01-30T06:37:33.740Z,14.37
2023-01-30T06:42:36.666Z,14.13
2023-01-30T06:47:51.937Z,13.20
2023-01-30T06:52:55.990Z,11.37
2023-01-30T06:58:06.441Z,9.87
2023-01-30T07:03:17.058Z,9.63
2023-01-30T07:08:22.560Z,10.50
2023-01-30T07:13:26.917Z,8.70
2023-01-30T07:18:29.940Z,10.00
2023-01-30T07:23:32.812Z,9.03
2023-01-30T07:28:35.691Z,8.93
2023-01-30T07:33:38.587Z,9.73
2023-01-30T07:38:41.628Z,9.20
2023-01-30T07:43:44.508Z,8.77
2023-01-30T07:48:47.696Z,10.33
2023-01-30T07:53:51.444Z,11.23
2023-01-30T07:58:55.862Z,8.63
2023-01-30T08:03:59.375Z,9.70
2023-01-30T08:09:02.283Z,10.30
2023-01-30T08:14:05.202Z,10.33
2023-01-30T08:19:08.175Z,10.77
2023-01-30T08:24:11.020Z,10.57
2023-01-30T08:29:13.996Z,9.73
2023-01-30T08:34:16.958Z,9.87
2023-01-30T08:39:20.246Z,39.50
2023-01-30T08:44:23.260Z,22.77
2023-01-30T08:49:26.283Z,10.03
2023-01-30T08:54:29.264Z,9.03
2023-01-30T08:59:32.220Z,9.27
2023-01-30T09:04:35.261Z,12.33
2023-01-30T09:09:38.709Z,10.10
2023-01-30T09:14:41.835Z,42.10
2023-01-30T09:19:45.041Z,17.07
2023-01-30T09:24:48.092Z,15.53
2023-01-30T09:29:51.545Z,18.13
2023-01-30T09:34:54.516Z,15.70
2023-01-30T09:39:57.515Z,16.83
2023-01-30T09:45:53.548Z,16.93
2023-01-30T09:51:02.374Z,15.03
2023-01-30T09:56:06.367Z,11.40
2023-01-30T10:01:22.611Z,14.93
2023-01-30T10:06:25.564Z,11.57
2023-01-30T10:11:43.516Z,9.57
2023-01-30T10:17:38.291Z,8.90
2023-01-30T10:23:02.433Z,9.13
2023-01-30T10:28:35.271Z,10.07
2023-01-30T10:34:06.601Z,9.53
2023-01-30T10:39:49.649Z,9.03
2023-01-30T10:45:15.192Z,10.10
2023-01-30T10:50:40.040Z,8.80
2023-01-30T10:56:01.506Z,9.60
2023-01-30T11:01:20.829Z,7.70
2023-01-30T11:06:27.156Z,9.90
2023-01-30T11:11:47.537Z,9.17
2023-01-30T11:51:54.971Z,10.32
2023-01-30T11:57:01.941Z,9.93
2023-01-30T12:02:38.432Z,12.47
2023-01-30T12:07:41.489Z,12.27
2023-01-30T12:12:52.044Z,34.07
2023-01-30T12:18:18.744Z,15.13
2023-01-30T12:23:46.442Z,15.87
2023-01-30T12:28:57.239Z,13.23
2023-01-30T12:34:00.794Z,12.13
2023-01-30T12:39:14.596Z,19.13
2023-01-30T12:44:39.225Z,15.53
2023-01-30T12:50:06.620Z,13.50
2023-01-30T12:55:46.049Z,14.87
2023-01-30T13:01:22.430Z,13.17
2023-01-30T13:07:01.915Z,13.73
2023-01-30T13:12:33.117Z,11.33
2023-01-30T13:18:20.313Z,10.40
2023-01-30T13:24:03.387Z,12.27
2023-01-30T13:29:14.256Z,11.43
2023-01-30T13:34:30.573Z,11.77
2023-01-30T13:40:00.796Z,13.37
2023-01-30T13:45:06.894Z,13.60
2023-01-30T13:50:12.730Z,13.10
2023-01-30T13:55:36.350Z,11.20
2023-01-30T14:00:39.821Z,10.27
2023-01-30T14:05:57.025Z,11.03
2023-01-30T14:11:00.244Z,11.87
2023-01-30T14:16:06.235Z,10.30
2023-01-30T14:21:25.527Z,12.77
2023-01-30T14:26:50.620Z,13.17
2023-01-30T14:31:53.934Z,20.50
2023-01-30T14:36:57.108Z,22.83
2023-01-30T14:42:24.647Z,18.83
2023-01-30T14:47:40.361Z,20.77
2023-01-30T14:52:54.997Z,27.57
2023-01-30T14:58:02.722Z,23.90
2023-01-30T15:03:18.507Z,29.53
2023-01-30T15:08:25.446Z,50.17
2023-01-30T15:13:59.401Z,12.37
2023-01-30T15:19:42.675Z,11.73
2023-01-30T15:25:20.305Z,11.53
2023-01-30T15:30:59.493Z,13.07
2023-01-30T15:36:26.131Z,13.57
2023-01-30T15:41:40.462Z,12.20
2023-01-30T15:47:16.819Z,13.30
2023-01-30T15:52:25.539Z,11.37
2023-01-30T15:57:39.998Z,13.60
2023-01-30T16:02:44.346Z,14.67
2023-01-30T16:07:50.314Z,13.97
2023-01-30T16:12:57.996Z,15.30
2023-01-30T16:18:23.631Z,11.23
2023-01-30T16:23:53.838Z,13.23
2023-01-30T16:29:23.051Z,10.93
2023-01-30T16:34:25.819Z,12.93
2023-01-30T16:39:37.732Z,12.37
2023-01-30T16:44:40.640Z,13.15
2023-01-30T16:49:47.813Z,12.27
2023-01-30T16:55:00.443Z,13.27
2023-01-30T17:00:40.435Z,16.57
2023-01-30T17:05:46.638Z,17.77
2023-01-30T17:10:55.286Z,19.50
2023-01-30T17:16:37.139Z,18.97
2023-01-30T17:21:49.619Z,14.83
2023-01-30T17:27:02.365Z,15.00
2023-01-30T17:32:15.272Z,17.13
2023-01-30T17:37:21.504Z,18.73
2023-01-30T17:42:24.267Z,16.53
2023-01-30T17:47:27.312Z,12.53
2023-01-30T17:52:30.297Z,13.60
2023-01-30T17:57:33.856Z,10.53
2023-01-30T18:02:36.909Z,11.70
2023-01-30T18:07:41.709Z,16.33
2023-01-30T18:12:45.563Z,12.00
2023-01-30T18:17:50.226Z,11.03
2023-01-30T18:22:53.185Z,12.40
2023-01-30T18:27:56.309Z,10.97
2023-01-30T18:32:59.544Z,15.17
2023-01-30T18:38:03.141Z,11.57
2023-01-30T18:43:06.245Z,11.03
2023-01-30T18:48:09.680Z,10.20
2023-01-30T18:53:12.639Z,7.73
2023-01-30T18:58:15.626Z,7.73
2023-01-30T19:03:18.653Z,7.70
2023-01-30T19:08:23.315Z,6.73
2023-01-30T19:13:36.663Z,6.23
2023-01-30T19:18:39.633Z,5.87
2023-01-30T19:23:42.892Z,6.10
2023-01-30T19:28:46.815Z,6.00
2023-01-30T19:34:01.082Z,5.37
2023-01-30T19:39:06.096Z,5.50
2023-01-30T19:44:11.826Z,5.93
2023-01-30T19:49:14.904Z,6.53
2023-01-30T19:54:18.931Z,6.23
2023-01-30T19:59:22.431Z,7.23
2023-01-30T20:04:25.426Z,7.00
2023-01-30T20:09:29.117Z,6.77
2023-01-30T20:14:32.230Z,6.67
2023-01-30T20:19:35.192Z,5.17
2023-01-30T20:24:38.085Z,5.50
2023-01-30T20:29:41.162Z,5.27
2023-01-30T20:34:44.432Z,4.77
2023-01-30T20:39:47.431Z,4.23
2023-01-30T20:44:50.334Z,4.70
2023-01-30T20:49:53.331Z,5.40
2023-01-30T20:54:56.487Z,4.00
2023-01-30T21:00:00.094Z,4.73
2023-01-30T21:05:03.074Z,4.80
2023-01-30T21:10:06.455Z,4.10
2023-01-30T21:15:09.733Z,4.37
2023-01-30T21:20:12.805Z,4.60
2023-01-30T21:25:15.610Z,4.37
2023-01-30T21:30:19.378Z,4.13
2023-01-30T21:35:22.349Z,4.77
2023-01-30T21:40:44.428Z,4.33
2023-01-30T21:45:47.532Z,3.87
2023-01-30T21:50:50.335Z,4.23
2023-01-30T21:55:53.454Z,4.33
2023-01-30T22:01:02.437Z,3.80
2023-01-30T22:06:10.458Z,3.67
2023-01-30T22:11:19.482Z,3.80
2023-01-30T22:16:26.722Z,3.80
2023-01-30T22:21:34.514Z,3.33
2023-01-30T22:26:38.098Z,4.37
2023-01-30T22:31:41.383Z,3.70
2023-01-30T22:36:44.496Z,3.80
2023-01-30T22:41:47.529Z,3.00
2023-01-30T22:46:52.159Z,3.57
2023-01-30T22:51:55.187Z,3.37
2023-01-30T22:56:58.143Z,3.07
2023-01-30T23:02:01.337Z,2.90
2023-01-30T23:07:04.361Z,2.87
2023-01-30T23:12:26.261Z,2.53
2023-01-30T23:17:47.681Z,2.40
2023-01-30T23:22:51.647Z,1.60
2023-01-30T23:27:54.714Z,2.53
2023-01-30T23:32:57.490Z,2.70
2023-01-30T23:38:16.351Z,2.40
2023-01-30T23:43:19.872Z,2.60
2023-01-30T23:48:22.817Z,2.30
2023-01-30T23:53:25.857Z,2.57
2023-01-30T23:58:29.437Z,2.53
